createdAt,value
2023-05-05T00:00:51.668Z,58.50
2023-05-05T00:01:53.844Z,58.12
2023-05-05T00:02:56.020Z,58.19
2023-05-05T00:03:58.293Z,58.04
2023-05-05T00:05:00.440Z,58.44
2023-05-05T00:06:02.885Z,57.78
2023-05-05T00:07:05.029Z,58.39
2023-05-05T00:08:07.228Z,59.26
2023-05-05T00:09:09.353Z,60.20
2023-05-05T00:10:11.545Z,60.02
2023-05-05T00:11:13.730Z,59.52
2023-05-05T00:12:15.892Z,58.92
2023-05-05T00:13:20.131Z,59.76
2023-05-05T00:14:22.249Z,59.17
2023-05-05T00:15:24.409Z,58.76
2023-05-05T00:16:27.006Z,59.37
2023-05-05T00:17:29.137Z,58.54
2023-05-05T00:18:31.522Z,59.14
2023-05-05T00:19:33.646Z,58.48
2023-05-05T00:20:35.893Z,58.77
2023-05-05T00:21:38.005Z,58.77
2023-05-05T00:22:40.092Z,58.94
2023-05-05T00:23:42.266Z,59.38
2023-05-05T00:24:44.351Z,59.85
2023-05-05T00:25:46.972Z,59.20
2023-05-05T00:26:49.097Z,60.05
2023-05-05T00:27:51.169Z,59.40
2023-05-05T00:28:53.320Z,59.28
2023-05-05T00:29:55.470Z,58.66
2023-05-05T00:30:57.610Z,59.01
2023-05-05T00:31:59.793Z,59.06
2023-05-05T00:33:02.055Z,60.10
2023-05-05T00:34:04.248Z,60.04
2023-05-05T00:35:07.007Z,60.64
2023-05-05T00:36:09.760Z,59.85
2023-05-05T00:37:12.330Z,60.42
2023-05-05T00:38:14.430Z,61.05
2023-05-05T00:39:16.551Z,61.44
2023-05-05T00:40:19.012Z,60.45
2023-05-05T00:41:21.082Z,60.58
2023-05-05T00:42:23.199Z,61.37
2023-05-05T00:43:25.324Z,61.49
2023-05-05T00:44:37.459Z,62.61
2023-05-05T00:45:42.848Z,61.85
2023-05-05T00:46:45.655Z,61.87
2023-05-05T00:47:49.885Z,62.02
2023-05-05T00:48:52.627Z,61.80
2023-05-05T00:49:54.802Z,61.29
2023-05-05T00:50:57.119Z,61.79
2023-05-05T00:51:59.722Z,61.67
2023-05-05T00:53:03.591Z,61.65
2023-05-05T00:54:05.993Z,62.22
2023-05-05T00:55:08.603Z,62.74
2023-05-05T00:56:12.906Z,63.16
2023-05-05T00:57:15.055Z,62.76
2023-05-05T00:58:17.548Z,62.26
2023-05-05T00:59:19.768Z,62.72
2023-05-05T01:00:22.112Z,62.95
2023-05-05T01:01:24.278Z,62.58
2023-05-05T01:02:26.734Z,62.90
2023-05-05T01:03:28.959Z,63.33
2023-05-05T01:04:31.269Z,63.55
2023-05-05T01:05:42.574Z,63.47
2023-05-05T01:07:03.954Z,63.63
2023-05-05T01:08:36.716Z,63.82
2023-05-05T01:10:18.042Z,64.52
2023-05-05T01:11:44.078Z,65.02
2023-05-05T01:12:55.130Z,64.67
2023-05-05T01:13:57.133Z,64.74
2023-05-05T01:15:11.055Z,64.56
2023-05-05T01:16:18.928Z,64.91
2023-05-05T01:17:24.770Z,65.13
2023-05-05T01:18:40.748Z,65.20
2023-05-05T01:19:59.631Z,64.99
2023-05-05T01:21:10.647Z,66.04
2023-05-05T01:22:13.435Z,65.62
2023-05-05T01:23:28.318Z,66.02
2023-05-05T01:24:45.721Z,65.60
2023-05-05T01:26:09.024Z,66.04
2023-05-05T01:27:27.951Z,66.49
2023-05-05T01:28:51.764Z,66.16
2023-05-05T01:30:16.872Z,66.38
2023-05-05T01:31:38.894Z,66.51
2023-05-05T01:32:49.153Z,66.43
2023-05-05T01:33:59.156Z,66.42
2023-05-05T01:35:09.998Z,67.12
2023-05-05T01:36:22.737Z,67.14
2023-05-05T01:37:45.605Z,67.46
2023-05-05T01:38:49.096Z,67.37
2023-05-05T01:39:53.793Z,67.72
2023-05-05T01:40:59.370Z,67.65
2023-05-05T01:42:06.834Z,67.61
2023-05-05T01:43:10.544Z,68.35
2023-05-05T01:44:14.848Z,68.54
2023-05-05T01:45:19.107Z,68.45
2023-05-05T01:46:24.004Z,68.01
2023-05-05T01:47:26.646Z,68.48
2023-05-05T01:48:30.049Z,68.73
2023-05-05T01:49:33.131Z,68.57
2023-05-05T01:50:36.928Z,68.62
2023-05-05T01:51:39.977Z,68.58
2023-05-05T01:52:42.522Z,68.77
2023-05-05T01:53:47.211Z,69.29
2023-05-05T01:54:49.213Z,68.99
2023-05-05T01:55:52.441Z,68.61
2023-05-05T01:56:56.452Z,68.67
2023-05-05T01:57:58.876Z,68.71
2023-05-05T01:59:01.994Z,68.67
2023-05-05T02:00:04.772Z,68.46
2023-05-05T02:01:07.135Z,68.70
2023-05-05T02:02:10.770Z,69.06
2023-05-05T02:03:13.960Z,69.25
2023-05-05T02:04:18.032Z,69.19
2023-05-05T02:05:22.878Z,69.44
2023-05-05T02:06:26.978Z,69.84
2023-05-05T02:07:29.918Z,70.19
2023-05-05T02:08:32.911Z,69.87
2023-05-05T02:09:36.358Z,70.17
2023-05-05T02:10:40.978Z,70.02
2023-05-05T02:11:43.039Z,70.11
2023-05-05T02:12:45.736Z,69.93
2023-05-05T02:13:49.483Z,69.45
2023-05-05T02:14:52.359Z,69.65
2023-05-05T02:15:54.952Z,69.47
2023-05-05T02:16:57.890Z,69.80
2023-05-05T02:18:00.609Z,68.91
2023-05-05T02:19:05.657Z,69.20
2023-05-05T02:20:10.822Z,69.84
2023-05-05T02:21:14.837Z,69.96
2023-05-05T02:22:17.017Z,69.75
2023-05-05T02:23:19.353Z,69.43
2023-05-05T02:24:21.574Z,69.30
2023-05-05T02:25:26.160Z,68.70
2023-05-05T02:26:30.391Z,69.17
2023-05-05T02:27:34.951Z,69.21
2023-05-05T02:28:48.883Z,69.15
2023-05-05T02:29:53.312Z,68.86
2023-05-05T02:30:59.835Z,68.73
2023-05-05T02:32:06.322Z,69.21
2023-05-05T02:33:10.787Z,69.02
2023-05-05T02:34:13.756Z,69.23
2023-05-05T02:35:19.137Z,69.44
2023-05-05T02:36:23.062Z,69.47
2023-05-05T02:37:27.786Z,69.40
2023-05-05T02:38:29.928Z,69.54
2023-05-05T02:39:38.717Z,70.23
2023-05-05T02:40:42.593Z,70.22
2023-05-05T02:41:47.401Z,70.15
2023-05-05T02:42:53.572Z,70.36
2023-05-05T02:43:58.058Z,70.50
2023-05-05T02:45:04.194Z,70.40
2023-05-05T02:46:06.766Z,70.42
2023-05-05T02:47:09.141Z,70.29
2023-05-05T02:48:13.100Z,70.34
2023-05-05T02:49:15.627Z,70.50
2023-05-05T02:50:18.122Z,70.70
2023-05-05T02:51:20.287Z,70.66
2023-05-05T02:52:22.489Z,70.62
2023-05-05T02:53:25.836Z,70.29
2023-05-05T02:54:28.177Z,70.30
2023-05-05T02:55:37.938Z,70.16
2023-05-05T02:56:44.445Z,70.66
2023-05-05T02:58:06.896Z,71.30
2023-05-05T02:59:10.191Z,71.68
2023-05-05T03:00:28.412Z,71.31
2023-05-05T03:01:39.507Z,71.19
2023-05-05T03:02:47.250Z,71.23
2023-05-05T03:04:04.953Z,71.94
2023-05-05T03:05:12.973Z,72.05
2023-05-05T03:06:17.738Z,72.04
2023-05-05T03:07:25.608Z,71.86
2023-05-05T03:08:43.094Z,72.15
2023-05-05T03:09:52.024Z,72.23
2023-05-05T03:10:59.892Z,71.90
2023-05-05T03:12:04.713Z,71.59
2023-05-05T03:13:10.246Z,71.73
2023-05-05T03:14:13.939Z,71.88
2023-05-05T03:15:16.192Z,72.21
2023-05-05T03:16:18.700Z,72.31
2023-05-05T03:17:22.606Z,72.69
2023-05-05T03:18:25.387Z,73.31
2023-05-05T03:19:28.808Z,73.47
2023-05-05T03:20:31.240Z,73.15
2023-05-05T03:21:33.690Z,72.75
2023-05-05T03:22:37.780Z,72.78
2023-05-05T03:23:40.125Z,73.38
2023-05-05T03:24:42.346Z,73.90
2023-05-05T03:25:46.376Z,74.15
2023-05-05T03:26:49.691Z,73.89
2023-05-05T03:27:51.977Z,73.75
2023-05-05T03:28:54.143Z,73.46
2023-05-05T03:29:56.552Z,74.02
2023-05-05T03:30:58.812Z,73.53
2023-05-05T03:32:01.543Z,73.38
2023-05-05T03:33:03.956Z,73.29
2023-05-05T03:34:06.250Z,73.57
2023-05-05T03:35:08.702Z,74.26
2023-05-05T03:36:11.007Z,74.08
2023-05-05T03:37:13.141Z,74.30
2023-05-05T03:38:15.380Z,74.35
2023-05-05T03:39:18.832Z,74.30
2023-05-05T03:40:27.178Z,73.99
2023-05-05T03:41:34.966Z,74.73
2023-05-05T03:42:37.087Z,74.53
2023-05-05T03:43:39.444Z,74.47
2023-05-05T03:44:41.530Z,74.71
2023-05-05T03:45:43.665Z,74.68
2023-05-05T03:46:45.844Z,74.05
2023-05-05T03:47:48.077Z,74.53
2023-05-05T03:48:50.444Z,74.40
2023-05-05T03:49:52.496Z,74.71
2023-05-05T03:50:54.586Z,73.98
2023-05-05T03:51:56.700Z,74.20
2023-05-05T03:52:58.819Z,73.62
2023-05-05T03:54:01.057Z,73.35
2023-05-05T03:55:03.220Z,73.96
2023-05-05T03:56:05.598Z,74.62
2023-05-05T03:57:07.741Z,74.02
2023-05-05T03:58:09.863Z,73.62
2023-05-05T03:59:12.023Z,73.77
2023-05-05T04:00:15.214Z,74.12
2023-05-05T04:01:17.302Z,74.24
2023-05-05T04:02:19.543Z,73.63
2023-05-05T04:03:21.900Z,73.33
2023-05-05T04:04:24.172Z,73.36
2023-05-05T04:05:26.432Z,73.07
2023-05-05T04:06:28.614Z,73.51
2023-05-05T04:07:30.726Z,73.21
2023-05-05T04:08:32.844Z,73.40
2023-05-05T04:09:35.005Z,72.67
2023-05-05T04:10:37.078Z,73.11
2023-05-05T04:11:39.223Z,73.23
2023-05-05T04:12:41.437Z,72.80
2023-05-05T04:13:43.540Z,72.83
2023-05-05T04:14:45.696Z,71.70
2023-05-05T04:15:47.824Z,72.54
2023-05-05T04:16:49.965Z,72.44
2023-05-05T04:17:52.237Z,72.69
2023-05-05T04:18:55.333Z,71.34
2023-05-05T04:19:57.415Z,70.51
2023-05-05T04:20:59.531Z,70.44
2023-05-05T04:22:01.644Z,70.96
2023-05-05T04:23:03.761Z,70.04
2023-05-05T04:24:06.256Z,70.49
2023-05-05T04:25:08.348Z,70.47
2023-05-05T04:26:10.754Z,71.58
2023-05-05T04:27:12.827Z,71.85
2023-05-05T04:28:14.971Z,72.08
2023-05-05T04:29:17.477Z,72.59
2023-05-05T04:30:19.680Z,72.46
2023-05-05T04:31:21.818Z,70.19
2023-05-05T04:32:23.988Z,70.15
2023-05-05T04:33:26.201Z,70.01
2023-05-05T04:34:28.311Z,70.35
2023-05-05T04:35:30.713Z,70.71
2023-05-05T04:36:32.781Z,70.49
2023-05-05T04:37:34.876Z,70.31
2023-05-05T04:38:37.020Z,70.34
2023-05-05T04:39:39.165Z,70.14
2023-05-05T04:40:41.402Z,70.07
2023-05-05T04:41:43.529Z,69.86
2023-05-05T04:42:45.894Z,69.27
2023-05-05T04:43:47.980Z,68.97
2023-05-05T04:44:50.048Z,68.97
2023-05-05T04:45:55.802Z,69.21
2023-05-05T04:46:58.154Z,68.78
2023-05-05T04:48:00.281Z,68.59
2023-05-05T04:49:05.158Z,68.69
2023-05-05T04:50:08.182Z,68.73
2023-05-05T04:51:10.505Z,68.50
2023-05-05T04:52:13.601Z,67.97
2023-05-05T04:53:15.753Z,67.70
2023-05-05T04:54:17.928Z,68.13
2023-05-05T04:55:20.094Z,68.13
2023-05-05T04:56:22.182Z,68.12
2023-05-05T04:57:24.279Z,67.78
2023-05-05T04:58:26.733Z,67.79
2023-05-05T04:59:28.812Z,67.87
2023-05-05T05:00:31.089Z,68.33
2023-05-05T05:01:33.262Z,67.83
2023-05-05T05:02:35.929Z,67.91
2023-05-05T05:03:38.140Z,68.27
2023-05-05T05:04:40.721Z,68.31
2023-05-05T05:05:42.807Z,67.24
2023-05-05T05:06:46.082Z,67.54
2023-05-05T05:07:48.325Z,66.75
2023-05-05T05:08:50.526Z,67.01
2023-05-05T05:09:52.647Z,66.25
2023-05-05T05:10:54.755Z,65.33
2023-05-05T05:12:01.056Z,65.21
2023-05-05T05:13:04.453Z,64.77
2023-05-05T05:14:06.895Z,64.37
2023-05-05T05:15:09.769Z,64.31
2023-05-05T05:16:11.952Z,64.62
2023-05-05T05:17:14.211Z,64.36
2023-05-05T05:18:16.737Z,63.92
2023-05-05T05:19:18.946Z,63.73
2023-05-05T05:20:21.181Z,63.59
2023-05-05T05:21:23.288Z,64.28
2023-05-05T05:22:25.387Z,63.66
2023-05-05T05:23:27.540Z,63.45
2023-05-05T05:24:30.066Z,63.27
2023-05-05T05:25:32.199Z,63.30
2023-05-05T05:26:34.337Z,62.91
2023-05-05T05:27:36.616Z,62.38
2023-05-05T05:28:38.754Z,62.56
2023-05-05T05:29:40.830Z,62.68
2023-05-05T05:30:43.039Z,62.72
2023-05-05T05:31:45.149Z,62.64
2023-05-05T05:32:47.349Z,62.64
2023-05-05T05:33:49.470Z,62.68
2023-05-05T05:34:51.709Z,61.87
2023-05-05T05:35:53.839Z,61.37
2023-05-05T05:36:55.966Z,60.95
2023-05-05T05:37:58.123Z,60.69
2023-05-05T05:39:00.231Z,60.86
2023-05-05T05:40:02.307Z,60.84
2023-05-05T05:41:09.962Z,60.31
2023-05-05T05:42:12.026Z,60.01
2023-05-05T05:43:14.181Z,60.31
2023-05-05T05:44:16.274Z,59.58
2023-05-05T05:45:18.365Z,58.81
2023-05-05T05:46:21.199Z,58.13
2023-05-05T05:47:23.871Z,57.51
2023-05-05T05:48:28.575Z,56.86
2023-05-05T05:49:30.556Z,57.49
2023-05-05T05:50:32.544Z,57.54
2023-05-05T05:51:34.648Z,58.25
2023-05-05T05:52:36.959Z,57.66
2023-05-05T05:53:39.152Z,57.17
2023-05-05T05:54:41.292Z,56.79
2023-05-05T05:55:46.199Z,56.45
2023-05-05T05:56:48.298Z,56.71
2023-05-05T05:57:50.366Z,57.23
2023-05-05T05:58:52.645Z,55.36
2023-05-05T05:59:55.069Z,54.84
2023-05-05T06:00:59.179Z,55.40
2023-05-05T06:02:01.714Z,54.76
2023-05-05T06:03:04.041Z,53.44
2023-05-05T06:04:06.303Z,53.20
2023-05-05T06:05:08.960Z,52.81
2023-05-05T06:06:11.076Z,52.78
2023-05-05T06:07:13.338Z,52.41
2023-05-05T06:08:15.421Z,52.09
2023-05-05T06:09:17.545Z,52.05
2023-05-05T06:10:29.862Z,52.23
2023-05-05T06:11:33.265Z,51.41
2023-05-05T06:12:35.403Z,51.13
2023-05-05T06:13:37.646Z,51.31
2023-05-05T06:14:39.749Z,51.54
2023-05-05T06:15:41.897Z,51.64
2023-05-05T06:16:44.340Z,52.10
2023-05-05T06:17:46.592Z,50.21
2023-05-05T06:18:48.813Z,50.86
2023-05-05T06:19:51.101Z,51.13
2023-05-05T06:20:54.071Z,51.50
2023-05-05T06:21:56.292Z,52.59
2023-05-05T06:22:58.468Z,52.91
2023-05-05T06:24:00.614Z,51.63
2023-05-05T06:25:02.789Z,50.17
2023-05-05T06:26:04.891Z,50.68
2023-05-05T06:27:06.964Z,52.57
2023-05-05T06:28:09.145Z,51.99
2023-05-05T06:29:12.418Z,50.75
2023-05-05T06:30:14.861Z,51.62
2023-05-05T06:31:17.496Z,50.71
2023-05-05T06:32:20.427Z,51.00
2023-05-05T06:33:22.534Z,51.15
2023-05-05T06:34:24.711Z,50.79
2023-05-05T06:35:26.894Z,51.79
2023-05-05T06:36:29.052Z,49.38
2023-05-05T06:37:31.161Z,50.32
2023-05-05T06:38:33.387Z,49.32
2023-05-05T06:39:35.512Z,49.78
2023-05-05T06:40:37.581Z,49.64
2023-05-05T06:41:39.643Z,50.11
2023-05-05T06:42:41.791Z,51.22
2023-05-05T06:43:45.225Z,49.66
2023-05-05T06:44:47.279Z,47.89
2023-05-05T06:45:49.527Z,47.93
2023-05-05T06:46:51.771Z,47.98
2023-05-05T06:47:53.981Z,48.15
2023-05-05T06:48:56.127Z,48.10
2023-05-05T06:49:58.210Z,48.15
2023-05-05T06:51:00.352Z,48.25
2023-05-05T06:52:03.116Z,47.70
2023-05-05T06:53:05.189Z,48.17
2023-05-05T06:54:07.677Z,47.62
2023-05-05T06:55:09.972Z,47.57
2023-05-05T06:56:12.085Z,48.08
2023-05-05T06:57:14.195Z,47.85
2023-05-05T06:58:16.388Z,48.27
2023-05-05T06:59:18.541Z,48.60
2023-05-05T07:00:22.167Z,47.34
2023-05-05T07:01:24.438Z,47.55
2023-05-05T07:02:27.064Z,46.28
2023-05-05T07:03:29.370Z,45.90
2023-05-05T07:04:31.635Z,45.72
2023-05-05T07:05:33.753Z,45.61
2023-05-05T07:06:35.911Z,45.92
2023-05-05T07:07:38.895Z,45.88
2023-05-05T07:08:41.101Z,46.96
2023-05-05T07:09:45.025Z,46.62
2023-05-05T07:10:47.381Z,46.55
2023-05-05T07:11:49.566Z,45.99
2023-05-05T07:12:52.567Z,46.15
2023-05-05T07:13:54.885Z,46.71
2023-05-05T07:14:57.367Z,45.92
2023-05-05T07:15:59.891Z,46.17
2023-05-05T07:17:01.994Z,45.12
2023-05-05T07:18:04.325Z,45.65
2023-05-05T07:19:06.602Z,46.03
2023-05-05T07:20:09.720Z,45.89
2023-05-05T07:21:12.214Z,46.12
2023-05-05T07:22:14.311Z,45.53
2023-05-05T07:23:16.418Z,45.94
2023-05-05T07:24:18.525Z,46.02
2023-05-05T07:25:21.232Z,45.56
2023-05-05T07:26:23.544Z,46.05
2023-05-05T07:27:25.977Z,46.32
2023-05-05T07:28:28.100Z,47.06
2023-05-05T07:29:30.212Z,47.57
2023-05-05T07:30:32.278Z,46.57
2023-05-05T07:31:34.472Z,46.58
2023-05-05T07:32:36.667Z,46.80
2023-05-05T07:33:38.850Z,47.86
2023-05-05T07:34:41.014Z,47.52
2023-05-05T07:35:43.135Z,46.52
2023-05-05T07:36:45.327Z,45.79
2023-05-05T07:37:47.880Z,46.01
2023-05-05T07:38:50.016Z,45.66
2023-05-05T07:39:52.206Z,45.77
2023-05-05T07:40:54.342Z,46.06
2023-05-05T07:41:56.467Z,45.74
2023-05-05T07:42:58.557Z,45.50
2023-05-05T07:44:01.242Z,45.53
2023-05-05T07:45:04.762Z,45.34
2023-05-05T07:46:07.247Z,45.14
2023-05-05T07:47:09.399Z,45.33
2023-05-05T07:48:11.603Z,45.16
2023-05-05T07:49:13.765Z,45.91
2023-05-05T07:50:16.286Z,46.14
2023-05-05T07:51:18.411Z,46.57
2023-05-05T07:52:30.070Z,46.90
2023-05-05T07:53:41.507Z,45.19
2023-05-05T07:54:45.252Z,45.25
2023-05-05T07:55:47.415Z,44.54
2023-05-05T07:56:49.583Z,44.53
2023-05-05T07:57:51.765Z,44.29
2023-05-05T07:58:53.938Z,44.42
2023-05-05T07:59:56.019Z,43.72
2023-05-05T08:00:58.121Z,44.27
2023-05-05T08:02:00.233Z,44.80
2023-05-05T08:03:02.493Z,44.54
2023-05-05T08:04:05.385Z,44.60
2023-05-05T08:05:08.229Z,44.98
2023-05-05T08:06:10.800Z,44.49
2023-05-05T08:07:12.931Z,43.98
2023-05-05T08:08:15.462Z,43.42
2023-05-05T08:09:17.679Z,43.65
2023-05-05T08:10:22.315Z,43.08
2023-05-05T08:11:27.175Z,43.53
2023-05-05T08:12:30.526Z,43.42
2023-05-05T08:13:32.710Z,43.31
2023-05-05T08:14:34.920Z,43.68
2023-05-05T08:15:37.157Z,43.98
2023-05-05T08:16:39.346Z,44.91
2023-05-05T08:17:49.176Z,43.88
2023-05-05T08:18:52.218Z,42.98
2023-05-05T08:19:54.504Z,43.01
2023-05-05T08:20:56.616Z,43.29
2023-05-05T08:22:01.054Z,42.40
2023-05-05T08:23:03.600Z,42.10
2023-05-05T08:24:05.752Z,43.09
2023-05-05T08:25:08.512Z,43.87
2023-05-05T08:26:10.780Z,44.26
2023-05-05T08:27:14.066Z,43.32
2023-05-05T08:28:16.232Z,43.53
2023-05-05T08:29:18.374Z,44.54
2023-05-05T08:30:21.460Z,43.61
2023-05-05T08:31:23.624Z,44.38
2023-05-05T08:32:27.296Z,43.69
2023-05-05T08:33:31.391Z,43.77
2023-05-05T08:34:33.550Z,43.03
2023-05-05T08:35:35.709Z,43.17
2023-05-05T08:36:37.908Z,43.05
2023-05-05T08:37:40.086Z,42.44
2023-05-05T08:38:42.168Z,41.72
2023-05-05T08:39:44.736Z,42.63
2023-05-05T08:40:46.954Z,42.84
2023-05-05T08:41:49.188Z,42.86
2023-05-05T08:42:51.300Z,42.71
2023-05-05T08:43:53.504Z,42.89
2023-05-05T08:44:57.269Z,43.21
2023-05-05T08:46:00.534Z,42.70
2023-05-05T08:47:02.854Z,42.53
2023-05-05T08:48:05.591Z,43.38
2023-05-05T08:49:11.257Z,41.75
2023-05-05T08:50:13.701Z,41.98
2023-05-05T08:51:19.937Z,42.54
2023-05-05T08:52:24.207Z,42.09
2023-05-05T08:53:41.449Z,42.28
2023-05-05T08:54:48.138Z,43.35
2023-05-05T08:55:55.482Z,41.75
2023-05-05T08:56:59.752Z,41.08
2023-05-05T08:58:04.223Z,40.77
2023-05-05T08:59:06.667Z,41.07
2023-05-05T09:00:10.738Z,41.46
2023-05-05T09:01:13.272Z,40.96
2023-05-05T09:02:16.419Z,42.35
2023-05-05T09:03:18.764Z,41.85
2023-05-05T09:04:21.130Z,41.20
2023-05-05T09:05:23.452Z,40.18
2023-05-05T09:06:27.436Z,39.99
2023-05-05T09:07:30.099Z,38.88
2023-05-05T09:08:33.203Z,38.72
2023-05-05T09:09:35.873Z,38.10
2023-05-05T09:10:41.111Z,37.47
2023-05-05T09:11:43.989Z,36.20
2023-05-05T09:12:46.252Z,36.09
2023-05-05T09:13:48.451Z,35.86
2023-05-05T09:16:09.971Z,35.27
2023-05-05T09:17:25.436Z,33.54
2023-05-05T09:18:27.681Z,32.95
2023-05-05T09:19:29.813Z,33.06
2023-05-05T09:20:36.078Z,33.71
2023-05-05T09:21:46.798Z,33.76
2023-05-05T09:22:48.970Z,31.90
2023-05-05T09:24:18.716Z,30.48
2023-05-05T09:25:20.781Z,30.61
2023-05-05T09:26:23.291Z,29.44
2023-05-05T09:27:25.637Z,29.06
2023-05-05T09:28:28.011Z,30.79
2023-05-05T09:29:30.147Z,30.20
2023-05-05T09:30:32.509Z,30.87
2023-05-05T09:31:35.916Z,31.71
2023-05-05T09:32:46.066Z,29.96
2023-05-05T09:33:48.538Z,29.68
2023-05-05T09:35:01.077Z,30.18
2023-05-05T09:36:03.473Z,30.96
2023-05-05T09:37:06.273Z,31.42
2023-05-05T09:38:12.118Z,31.37
2023-05-05T09:39:16.906Z,31.74
2023-05-05T09:40:20.586Z,31.44
2023-05-05T09:41:39.220Z,31.66
2023-05-05T09:42:41.502Z,32.17
2023-05-05T09:43:52.502Z,32.57
2023-05-05T09:44:54.853Z,31.34
2023-05-05T09:46:07.719Z,31.90
2023-05-05T09:47:22.137Z,29.33
2023-05-05T09:48:30.647Z,27.94
2023-05-05T09:49:32.860Z,28.76
2023-05-05T09:50:44.748Z,29.22
2023-05-05T09:51:47.582Z,29.45
2023-05-05T09:52:57.365Z,29.52
2023-05-05T09:53:59.541Z,29.93
2023-05-05T09:55:01.926Z,30.72
2023-05-05T09:56:04.312Z,30.54
2023-05-05T09:57:06.714Z,29.52
2023-05-05T09:58:23.911Z,28.86
2023-05-05T09:59:26.188Z,28.30
2023-05-05T10:00:46.670Z,28.34
2023-05-05T10:01:50.087Z,30.11
2023-05-05T10:02:52.337Z,30.83
2023-05-05T10:03:54.615Z,31.12
2023-05-05T10:05:10.262Z,28.83
2023-05-05T10:06:12.387Z,28.95
2023-05-05T10:07:23.314Z,27.87
2023-05-05T10:08:27.673Z,30.12
2023-05-05T10:09:31.692Z,30.05
2023-05-05T10:10:33.822Z,28.01
2023-05-05T10:11:36.088Z,28.14
2023-05-05T10:12:38.452Z,29.26
2023-05-05T10:13:42.131Z,28.51
2023-05-05T10:14:44.344Z,27.73
2023-05-05T10:15:48.569Z,27.99
2023-05-05T10:16:52.328Z,27.16
2023-05-05T10:18:06.964Z,27.19
2023-05-05T10:19:14.300Z,26.42
2023-05-05T10:20:16.549Z,24.55
2023-05-05T10:21:21.452Z,25.41
2023-05-05T10:22:24.182Z,25.83
2023-05-05T10:23:38.698Z,24.57
2023-05-05T10:24:44.788Z,25.70
2023-05-05T10:26:01.827Z,25.39
2023-05-05T10:27:04.866Z,24.71
2023-05-05T10:28:07.097Z,25.36
2023-05-05T10:29:16.772Z,24.67
2023-05-05T10:30:30.155Z,25.60
2023-05-05T10:31:52.908Z,25.31
2023-05-05T10:33:18.285Z,24.90
2023-05-05T10:34:36.247Z,24.79
2023-05-05T10:35:40.847Z,24.47
2023-05-05T10:36:43.025Z,23.53
2023-05-05T10:37:45.777Z,23.92
2023-05-05T10:38:49.375Z,24.40
2023-05-05T10:39:52.605Z,23.73
2023-05-05T10:40:55.286Z,23.97
2023-05-05T10:42:01.831Z,23.26
2023-05-05T10:43:04.407Z,23.75
2023-05-05T10:44:06.852Z,23.01
2023-05-05T10:45:09.570Z,22.78
2023-05-05T10:46:12.019Z,22.44
2023-05-05T10:47:15.166Z,22.75
2023-05-05T10:48:30.285Z,22.56
2023-05-05T10:50:07.588Z,22.17
2023-05-05T10:51:38.564Z,23.01
2023-05-05T10:52:51.394Z,22.80
2023-05-05T10:54:01.864Z,22.91
2023-05-05T10:55:19.436Z,24.36
2023-05-05T10:56:28.358Z,24.01
2023-05-05T10:57:32.479Z,24.98
2023-05-05T10:58:51.303Z,26.38
2023-05-05T10:59:58.081Z,25.63
2023-05-05T11:01:00.310Z,25.85
2023-05-05T11:02:27.236Z,25.36
2023-05-05T11:03:29.567Z,26.62
2023-05-05T11:04:31.832Z,25.60
2023-05-05T11:05:33.968Z,24.92
2023-05-05T11:06:36.140Z,24.84
2023-05-05T11:07:38.871Z,24.75
2023-05-05T11:08:44.679Z,25.34
2023-05-05T11:09:58.169Z,26.48
2023-05-05T11:11:01.338Z,25.96
2023-05-05T11:12:04.939Z,26.37
2023-05-05T11:13:07.121Z,25.90
2023-05-05T11:14:22.535Z,26.04
2023-05-05T11:15:27.557Z,25.24
2023-05-05T11:16:45.925Z,25.02
2023-05-05T11:17:48.381Z,24.43
2023-05-05T11:18:50.793Z,23.80
2023-05-05T11:19:53.473Z,24.42
2023-05-05T11:20:58.269Z,23.51
2023-05-05T11:22:01.769Z,23.18
2023-05-05T11:23:04.042Z,23.91
2023-05-05T11:24:28.168Z,22.25
2023-05-05T11:25:40.916Z,23.39
2023-05-05T11:26:51.280Z,22.30
2023-05-05T11:28:13.561Z,21.31
2023-05-05T11:29:15.679Z,21.67
2023-05-05T11:30:18.732Z,22.55
2023-05-05T11:31:20.950Z,25.90
2023-05-05T11:32:23.175Z,24.19
2023-05-05T11:33:38.646Z,23.61
2023-05-05T11:34:50.049Z,23.66
2023-05-05T11:35:55.099Z,23.34
2023-05-05T11:37:07.858Z,23.03
2023-05-05T11:38:10.082Z,23.19
2023-05-05T11:39:36.617Z,22.31
2023-05-05T11:40:41.921Z,22.33
2023-05-05T11:41:57.864Z,23.88
2023-05-05T11:43:07.245Z,24.86
2023-05-05T11:44:16.962Z,23.89
2023-05-05T11:45:23.390Z,24.62
2023-05-05T11:46:25.527Z,24.61
2023-05-05T11:47:28.724Z,23.49
2023-05-05T11:48:30.894Z,23.49
2023-05-05T11:49:34.846Z,23.72
2023-05-05T11:50:37.026Z,23.03
2023-05-05T11:51:39.499Z,23.20
2023-05-05T11:52:41.596Z,23.03
2023-05-05T11:53:48.579Z,22.17
2023-05-05T11:54:51.438Z,21.87
2023-05-05T11:56:10.004Z,21.71
2023-05-05T11:57:12.167Z,21.10
2023-05-05T11:58:18.647Z,21.67
2023-05-05T11:59:21.048Z,22.16
2023-05-05T12:00:32.778Z,22.65
2023-05-05T12:01:35.799Z,23.56
2023-05-05T12:02:38.122Z,23.43
2023-05-05T12:03:41.235Z,22.35
2023-05-05T12:04:43.586Z,23.14
2023-05-05T12:05:48.742Z,22.65
2023-05-05T12:06:50.956Z,22.61
2023-05-05T12:07:57.506Z,23.18
2023-05-05T12:09:00.958Z,23.28
2023-05-05T12:10:03.174Z,21.91
2023-05-05T12:11:07.869Z,22.09
2023-05-05T12:12:10.085Z,21.59
2023-05-05T12:13:18.796Z,20.45
2023-05-05T12:14:21.814Z,20.38
2023-05-05T12:15:31.174Z,19.15
2023-05-05T12:16:33.456Z,19.30
2023-05-05T12:17:39.939Z,18.97
2023-05-05T12:18:42.570Z,21.07
2023-05-05T12:19:46.224Z,21.99
2023-05-05T12:20:48.491Z,21.31
2023-05-05T12:21:50.688Z,21.97
2023-05-05T12:22:59.760Z,21.85
2023-05-05T12:24:01.984Z,22.28
2023-05-05T12:25:06.623Z,22.86
2023-05-05T12:26:31.842Z,23.15
2023-05-05T12:27:35.493Z,23.35
2023-05-05T12:28:46.458Z,22.78
2023-05-05T12:29:48.792Z,22.43
2023-05-05T12:31:00.134Z,20.44
2023-05-05T12:32:02.426Z,19.74
2023-05-05T12:33:06.312Z,20.53
2023-05-05T12:34:10.037Z,19.46
2023-05-05T12:35:13.597Z,19.78
2023-05-05T12:36:16.449Z,19.99
2023-05-05T12:37:19.248Z,19.82
2023-05-05T12:38:21.395Z,19.51
2023-05-05T12:39:23.523Z,19.98
2023-05-05T12:40:45.116Z,19.26
2023-05-05T12:41:47.485Z,20.54
2023-05-05T12:42:49.974Z,19.57
2023-05-05T12:44:03.353Z,20.29
2023-05-05T12:45:06.963Z,19.93
2023-05-05T12:46:11.159Z,22.08
2023-05-05T12:47:13.833Z,21.15
2023-05-05T12:48:22.477Z,21.29
2023-05-05T12:49:24.684Z,20.92
2023-05-05T12:50:31.591Z,21.51
2023-05-05T12:51:37.052Z,20.91
2023-05-05T12:52:43.932Z,20.96
2023-05-05T12:53:47.890Z,20.29
2023-05-05T12:54:58.038Z,20.48
2023-05-05T12:56:00.234Z,20.46
2023-05-05T12:57:11.257Z,20.67
2023-05-05T12:58:13.531Z,20.15
2023-05-05T12:59:21.428Z,21.16
2023-05-05T13:00:24.218Z,20.30
2023-05-05T13:01:26.641Z,20.44
2023-05-05T13:02:35.313Z,20.77
2023-05-05T13:03:37.749Z,20.80
2023-05-05T13:04:53.352Z,20.79
2023-05-05T13:05:55.585Z,20.58
2023-05-05T13:07:13.712Z,21.44
2023-05-05T13:08:15.809Z,21.50
2023-05-05T13:09:24.692Z,21.91
2023-05-05T13:10:28.096Z,21.63
2023-05-05T13:11:30.306Z,21.03
2023-05-05T13:12:32.396Z,21.68
2023-05-05T13:13:34.624Z,21.61
2023-05-05T13:14:36.781Z,22.56
2023-05-05T13:15:38.903Z,23.13
2023-05-05T13:16:41.519Z,23.97
2023-05-05T13:17:43.677Z,23.94
2023-05-05T13:18:46.523Z,23.45
2023-05-05T13:19:48.687Z,23.12
2023-05-05T13:20:51.354Z,23.48
2023-05-05T13:21:57.511Z,24.85
2023-05-05T13:22:59.631Z,24.84
2023-05-05T13:24:18.972Z,23.97
2023-05-05T13:25:23.306Z,23.55
2023-05-05T13:26:25.999Z,22.67
2023-05-05T13:27:28.098Z,23.13
2023-05-05T13:28:30.215Z,22.78
2023-05-05T13:29:33.342Z,22.58
2023-05-05T13:30:35.526Z,22.22
2023-05-05T13:31:37.719Z,21.65
2023-05-05T13:32:39.889Z,21.68
2023-05-05T13:33:42.042Z,21.44
2023-05-05T13:34:44.249Z,20.43
2023-05-05T13:35:46.408Z,20.88
2023-05-05T13:36:48.596Z,20.94
2023-05-05T13:37:50.757Z,20.19
2023-05-05T13:38:53.490Z,18.40
2023-05-05T13:39:59.287Z,19.15
2023-05-05T13:41:01.625Z,18.61
2023-05-05T13:42:03.881Z,19.43
2023-05-05T13:43:06.047Z,18.61
2023-05-05T13:44:08.118Z,18.41
2023-05-05T13:45:10.766Z,17.98
2023-05-05T13:46:20.163Z,18.07
2023-05-05T13:47:22.724Z,18.13
2023-05-05T13:48:24.992Z,18.24
2023-05-05T13:49:27.204Z,18.35
2023-05-05T13:50:29.344Z,18.49
2023-05-05T13:51:31.546Z,19.65
2023-05-05T13:52:33.714Z,19.44
2023-05-05T13:53:36.073Z,19.46